sensor_id;sensor_type;location;lat;lon;timestamp;P1;durP1;ratioP1;P2;durP2;ratioP2
65759;SDS011;52496;51.082;5.066;2023-07-13T00:00:14;7.78;;;1.92;;
65759;SDS011;52496;51.082;5.066;2023-07-13T00:02:47;3.28;;;1.85;;
65759;SDS011;52496;51.082;5.066;2023-07-13T00:05:18;9.45;;;2.22;;
65759;SDS011;52496;51.082;5.066;2023-07-13T00:07:49;7.68;;;3.42;;
65759;SDS011;52496;51.082;5.066;2023-07-13T00:10:21;6.63;;;2.17;;
65759;SDS011;52496;51.082;5.066;2023-07-13T00:12:52;5.90;;;1.80;;
65759;SDS011;52496;51.082;5.066;2023-07-13T00:15:25;5.68;;;2.00;;
65759;SDS011;52496;51.082;5.066;2023-07-13T00:17:56;4.88;;;1.90;;
65759;SDS011;52496;51.082;5.066;2023-07-13T00:20:27;6.85;;;2.17;;
65759;SDS011;52496;51.082;5.066;2023-07-13T00:22:57;8.77;;;2.33;;
65759;SDS011;52496;51.082;5.066;2023-07-13T00:25:28;6.47;;;2.25;;
65759;SDS011;52496;51.082;5.066;2023-07-13T00:27:58;6.88;;;2.10;;
65759;SDS011;52496;51.082;5.066;2023-07-13T00:30:29;6.00;;;2.22;;
65759;SDS011;52496;51.082;5.066;2023-07-13T00:33:00;3.67;;;2.10;;
65759;SDS011;52496;51.082;5.066;2023-07-13T00:35:31;5.72;;;2.28;;
65759;SDS011;52496;51.082;5.066;2023-07-13T00:38:02;7.20;;;2.45;;
65759;SDS011;52496;51.082;5.066;2023-07-13T00:40:32;5.50;;;2.50;;
65759;SDS011;52496;51.082;5.066;2023-07-13T00:43:04;4.78;;;1.90;;
65759;SDS011;52496;51.082;5.066;2023-07-13T00:48:17;6.65;;;2.28;;
65759;SDS011;52496;51.082;5.066;2023-07-13T00:50:51;4.45;;;2.28;;
65759;SDS011;52496;51.082;5.066;2023-07-13T00:53:24;8.35;;;2.30;;
65759;SDS011;52496;51.082;5.066;2023-07-13T00:55:59;5.30;;;2.25;;
65759;SDS011;52496;51.082;5.066;2023-07-13T00:58:30;5.78;;;2.58;;
65759;SDS011;52496;51.082;5.066;2023-07-13T01:01:01;6.50;;;2.30;;
65759;SDS011;52496;51.082;5.066;2023-07-13T01:03:32;9.60;;;2.60;;
65759;SDS011;52496;51.082;5.066;2023-07-13T01:06:04;5.47;;;2.20;;
65759;SDS011;52496;51.082;5.066;2023-07-13T01:08:35;7.32;;;2.53;;
65759;SDS011;52496;51.082;5.066;2023-07-13T01:11:06;5.38;;;2.65;;
65759;SDS011;52496;51.082;5.066;2023-07-13T01:13:38;7.35;;;2.45;;
65759;SDS011;52496;51.082;5.066;2023-07-13T01:16:13;7.25;;;2.72;;
65759;SDS011;52496;51.082;5.066;2023-07-13T01:18:49;7.40;;;2.22;;
65759;SDS011;52496;51.082;5.066;2023-07-13T01:21:20;12.15;;;2.47;;
65759;SDS011;52496;51.082;5.066;2023-07-13T01:23:50;4.53;;;2.40;;
65759;SDS011;52496;51.082;5.066;2023-07-13T01:26:21;6.68;;;2.40;;
65759;SDS011;52496;51.082;5.066;2023-07-13T01:28:52;8.45;;;2.60;;
65759;SDS011;52496;51.082;5.066;2023-07-13T01:31:22;10.85;;;3.17;;
65759;SDS011;52496;51.082;5.066;2023-07-13T01:33:53;10.50;;;3.20;;
65759;SDS011;52496;51.082;5.066;2023-07-13T01:36:25;5.75;;;2.72;;
65759;SDS011;52496;51.082;5.066;2023-07-13T01:38:55;5.97;;;2.28;;
65759;SDS011;52496;51.082;5.066;2023-07-13T01:41:26;5.13;;;2.40;;
65759;SDS011;52496;51.082;5.066;2023-07-13T01:43:56;11.93;;;2.83;;
65759;SDS011;52496;51.082;5.066;2023-07-13T01:46:27;5.35;;;2.20;;
65759;SDS011;52496;51.082;5.066;2023-07-13T01:48:57;6.20;;;2.47;;
65759;SDS011;52496;51.082;5.066;2023-07-13T01:51:28;6.45;;;2.40;;
65759;SDS011;52496;51.082;5.066;2023-07-13T01:53:58;6.50;;;2.40;;
65759;SDS011;52496;51.082;5.066;2023-07-13T01:56:29;4.78;;;2.55;;
65759;SDS011;52496;51.082;5.066;2023-07-13T01:58:59;10.07;;;2.45;;
65759;SDS011;52496;51.082;5.066;2023-07-13T02:01:30;5.93;;;2.33;;
65759;SDS011;52496;51.082;5.066;2023-07-13T02:04:00;9.02;;;2.65;;
65759;SDS011;52496;51.082;5.066;2023-07-13T02:06:31;4.22;;;2.38;;
65759;SDS011;52496;51.082;5.066;2023-07-13T02:09:02;9.18;;;2.40;;
65759;SDS011;52496;51.082;5.066;2023-07-13T02:11:33;5.20;;;2.30;;
65759;SDS011;52496;51.082;5.066;2023-07-13T02:14:03;5.85;;;2.90;;
65759;SDS011;52496;51.082;5.066;2023-07-13T02:16:34;5.85;;;2.58;;
65759;SDS011;52496;51.082;5.066;2023-07-13T02:19:04;8.13;;;2.60;;
65759;SDS011;52496;51.082;5.066;2023-07-13T02:21:36;8.68;;;3.53;;
65759;SDS011;52496;51.082;5.066;2023-07-13T02:24:06;8.10;;;2.92;;
65759;SDS011;52496;51.082;5.066;2023-07-13T02:26:37;7.47;;;2.53;;
65759;SDS011;52496;51.082;5.066;2023-07-13T02:29:07;6.15;;;2.70;;
65759;SDS011;52496;51.082;5.066;2023-07-13T02:31:38;6.00;;;2.67;;
65759;SDS011;52496;51.082;5.066;2023-07-13T02:34:09;9.13;;;2.70;;
65759;SDS011;52496;51.082;5.066;2023-07-13T02:36:39;9.27;;;2.70;;
65759;SDS011;52496;51.082;5.066;2023-07-13T02:39:11;7.25;;;2.50;;
65759;SDS011;52496;51.082;5.066;2023-07-13T02:41:42;9.27;;;2.65;;
65759;SDS011;52496;51.082;5.066;2023-07-13T02:44:13;11.30;;;3.08;;
65759;SDS011;52496;51.082;5.066;2023-07-13T02:46:44;8.82;;;4.10;;
65759;SDS011;52496;51.082;5.066;2023-07-13T02:49:15;11.93;;;4.00;;
65759;SDS011;52496;51.082;5.066;2023-07-13T02:51:45;9.63;;;2.80;;
65759;SDS011;52496;51.082;5.066;2023-07-13T02:54:16;10.98;;;3.85;;
65759;SDS011;52496;51.082;5.066;2023-07-13T02:56:46;5.75;;;2.72;;
65759;SDS011;52496;51.082;5.066;2023-07-13T02:59:17;5.45;;;2.40;;
65759;SDS011;52496;51.082;5.066;2023-07-13T03:01:47;9.57;;;3.00;;
65759;SDS011;52496;51.082;5.066;2023-07-13T03:04:18;7.35;;;3.00;;
65759;SDS011;52496;51.082;5.066;2023-07-13T03:06:49;5.43;;;2.65;;
65759;SDS011;52496;51.082;5.066;2023-07-13T03:09:20;7.30;;;2.80;;
65759;SDS011;52496;51.082;5.066;2023-07-13T03:11:54;10.25;;;2.83;;
65759;SDS011;52496;51.082;5.066;2023-07-13T03:14:25;8.90;;;2.78;;
65759;SDS011;52496;51.082;5.066;2023-07-13T03:16:55;8.25;;;2.65;;
65759;SDS011;52496;51.082;5.066;2023-07-13T03:19:26;10.32;;;3.10;;
65759;SDS011;52496;51.082;5.066;2023-07-13T03:21:57;8.23;;;2.75;;
65759;SDS011;52496;51.082;5.066;2023-07-13T03:24:27;4.93;;;2.47;;
65759;SDS011;52496;51.082;5.066;2023-07-13T03:26:58;6.25;;;3.00;;
65759;SDS011;52496;51.082;5.066;2023-07-13T03:29:28;11.32;;;2.83;;
65759;SDS011;52496;51.082;5.066;2023-07-13T03:31:59;10.30;;;2.50;;
65759;SDS011;52496;51.082;5.066;2023-07-13T03:34:29;12.25;;;3.63;;
65759;SDS011;52496;51.082;5.066;2023-07-13T03:37:00;10.43;;;2.90;;
65759;SDS011;52496;51.082;5.066;2023-07-13T03:39:31;7.40;;;3.47;;
65759;SDS011;52496;51.082;5.066;2023-07-13T03:42:01;8.52;;;2.85;;
65759;SDS011;52496;51.082;5.066;2023-07-13T03:44:32;12.15;;;3.63;;
65759;SDS011;52496;51.082;5.066;2023-07-13T03:47:02;8.10;;;2.63;;
65759;SDS011;52496;51.082;5.066;2023-07-13T03:49:33;11.23;;;3.25;;
65759;SDS011;52496;51.082;5.066;2023-07-13T03:52:03;8.52;;;2.85;;
65759;SDS011;52496;51.082;5.066;2023-07-13T03:54:34;7.75;;;2.70;;
65759;SDS011;52496;51.082;5.066;2023-07-13T03:57:05;13.50;;;3.30;;
65759;SDS011;52496;51.082;5.066;2023-07-13T03:59:35;7.60;;;3.15;;
65759;SDS011;52496;51.082;5.066;2023-07-13T04:02:06;7.82;;;3.25;;
65759;SDS011;52496;51.082;5.066;2023-07-13T04:04:37;7.75;;;2.65;;
65759;SDS011;52496;51.082;5.066;2023-07-13T04:07:10;7.32;;;2.67;;
65759;SDS011;52496;51.082;5.066;2023-07-13T04:09:41;6.50;;;2.83;;
65759;SDS011;52496;51.082;5.066;2023-07-13T04:12:11;11.30;;;2.97;;
65759;SDS011;52496;51.082;5.066;2023-07-13T04:14:42;10.93;;;3.17;;
65759;SDS011;52496;51.082;5.066;2023-07-13T04:17:12;9.60;;;2.58;;
65759;SDS011;52496;51.082;5.066;2023-07-13T04:19:42;13.90;;;3.35;;
65759;SDS011;52496;51.082;5.066;2023-07-13T04:22:13;9.88;;;2.88;;
65759;SDS011;52496;51.082;5.066;2023-07-13T04:24:43;16.65;;;3.25;;
65759;SDS011;52496;51.082;5.066;2023-07-13T04:27:14;16.75;;;3.90;;
65759;SDS011;52496;51.082;5.066;2023-07-13T04:29:44;7.13;;;2.80;;
65759;SDS011;52496;51.082;5.066;2023-07-13T04:32:14;9.43;;;3.08;;
65759;SDS011;52496;51.082;5.066;2023-07-13T04:34:45;11.05;;;3.22;;
65759;SDS011;52496;51.082;5.066;2023-07-13T04:37:15;9.95;;;3.35;;
65759;SDS011;52496;51.082;5.066;2023-07-13T04:39:46;8.93;;;2.80;;
65759;SDS011;52496;51.082;5.066;2023-07-13T04:42:16;6.82;;;2.85;;
65759;SDS011;52496;51.082;5.066;2023-07-13T04:44:50;8.30;;;3.40;;
65759;SDS011;52496;51.082;5.066;2023-07-13T04:47:21;10.68;;;3.15;;
65759;SDS011;52496;51.082;5.066;2023-07-13T04:49:52;8.18;;;3.08;;
65759;SDS011;52496;51.082;5.066;2023-07-13T04:52:22;11.75;;;2.80;;
65759;SDS011;52496;51.082;5.066;2023-07-13T04:54:52;8.55;;;3.05;;
65759;SDS011;52496;51.082;5.066;2023-07-13T04:57:23;9.77;;;3.67;;
65759;SDS011;52496;51.082;5.066;2023-07-13T04:59:53;11.82;;;3.50;;
65759;SDS011;52496;51.082;5.066;2023-07-13T05:02:24;12.73;;;3.10;;
65759;SDS011;52496;51.082;5.066;2023-07-13T05:04:54;7.05;;;2.60;;
65759;SDS011;52496;51.082;5.066;2023-07-13T05:07:25;10.00;;;2.80;;
65759;SDS011;52496;51.082;5.066;2023-07-13T05:09:56;8.82;;;3.00;;
65759;SDS011;52496;51.082;5.066;2023-07-13T05:12:26;10.05;;;3.38;;
65759;SDS011;52496;51.082;5.066;2023-07-13T05:14:57;10.35;;;2.90;;
65759;SDS011;52496;51.082;5.066;2023-07-13T05:17:27;7.00;;;2.90;;
65759;SDS011;52496;51.082;5.066;2023-07-13T05:19:58;8.25;;;2.95;;
65759;SDS011;52496;51.082;5.066;2023-07-13T05:22:28;8.50;;;3.17;;
65759;SDS011;52496;51.082;5.066;2023-07-13T05:24:59;11.10;;;2.90;;
65759;SDS011;52496;51.082;5.066;2023-07-13T05:27:29;9.60;;;3.38;;
65759;SDS011;52496;51.082;5.066;2023-07-13T05:30:00;7.20;;;2.95;;
65759;SDS011;52496;51.082;5.066;2023-07-13T05:32:31;9.00;;;3.17;;
65759;SDS011;52496;51.082;5.066;2023-07-13T05:35:01;12.40;;;2.97;;
65759;SDS011;52496;51.082;5.066;2023-07-13T05:37:32;9.35;;;2.83;;
65759;SDS011;52496;51.082;5.066;2023-07-13T05:40:03;10.40;;;3.40;;
65759;SDS011;52496;51.082;5.066;2023-07-13T05:42:34;10.30;;;3.13;;
65759;SDS011;52496;51.082;5.066;2023-07-13T05:45:04;11.20;;;3.40;;
65759;SDS011;52496;51.082;5.066;2023-07-13T05:47:35;10.27;;;3.25;;
65759;SDS011;52496;51.082;5.066;2023-07-13T05:50:05;16.20;;;3.33;;
65759;SDS011;52496;51.082;5.066;2023-07-13T05:52:36;9.75;;;3.00;;
65759;SDS011;52496;51.082;5.066;2023-07-13T05:55:07;16.60;;;3.80;;
65759;SDS011;52496;51.082;5.066;2023-07-13T05:57:38;10.98;;;3.40;;
65759;SDS011;52496;51.082;5.066;2023-07-13T06:00:09;14.30;;;3.28;;
65759;SDS011;52496;51.082;5.066;2023-07-13T06:02:40;11.98;;;3.40;;
65759;SDS011;52496;51.082;5.066;2023-07-13T06:05:10;8.88;;;3.22;;
65759;SDS011;52496;51.082;5.066;2023-07-13T06:07:41;12.82;;;3.35;;
65759;SDS011;52496;51.082;5.066;2023-07-13T06:10:12;11.35;;;3.00;;
65759;SDS011;52496;51.082;5.066;2023-07-13T06:12:42;10.15;;;3.10;;
65759;SDS011;52496;51.082;5.066;2023-07-13T06:15:13;12.80;;;3.80;;
65759;SDS011;52496;51.082;5.066;2023-07-13T06:17:43;11.07;;;3.13;;
65759;SDS011;52496;51.082;5.066;2023-07-13T06:20:14;9.68;;;3.42;;
65759;SDS011;52496;51.082;5.066;2023-07-13T06:22:44;10.98;;;3.25;;
65759;SDS011;52496;51.082;5.066;2023-07-13T06:25:15;15.23;;;3.80;;
65759;SDS011;52496;51.082;5.066;2023-07-13T06:27:48;12.63;;;3.47;;
65759;SDS011;52496;51.082;5.066;2023-07-13T06:30:19;10.95;;;3.30;;
65759;SDS011;52496;51.082;5.066;2023-07-13T06:32:50;11.35;;;3.53;;
65759;SDS011;52496;51.082;5.066;2023-07-13T06:35:20;20.27;;;4.20;;
65759;SDS011;52496;51.082;5.066;2023-07-13T06:37:51;14.95;;;3.95;;
65759;SDS011;52496;51.082;5.066;2023-07-13T06:40:21;14.43;;;3.47;;
65759;SDS011;52496;51.082;5.066;2023-07-13T06:42:51;10.32;;;3.42;;
65759;SDS011;52496;51.082;5.066;2023-07-13T06:45:23;7.97;;;3.00;;
65759;SDS011;52496;51.082;5.066;2023-07-13T06:47:53;15.07;;;3.78;;
65759;SDS011;52496;51.082;5.066;2023-07-13T06:50:24;14.10;;;4.13;;
65759;SDS011;52496;51.082;5.066;2023-07-13T06:52:54;14.10;;;3.88;;
65759;SDS011;52496;51.082;5.066;2023-07-13T06:55:25;15.45;;;3.78;;
65759;SDS011;52496;51.082;5.066;2023-07-13T06:57:57;11.10;;;4.50;;
65759;SDS011;52496;51.082;5.066;2023-07-13T07:00:28;10.18;;;3.38;;
65759;SDS011;52496;51.082;5.066;2023-07-13T07:02:58;9.18;;;3.20;;
65759;SDS011;52496;51.082;5.066;2023-07-13T07:05:29;9.40;;;3.45;;
65759;SDS011;52496;51.082;5.066;2023-07-13T07:07:59;10.32;;;3.30;;
65759;SDS011;52496;51.082;5.066;2023-07-13T07:10:30;9.75;;;3.95;;
65759;SDS011;52496;51.082;5.066;2023-07-13T07:13:02;13.75;;;3.35;;
65759;SDS011;52496;51.082;5.066;2023-07-13T07:15:33;10.82;;;3.35;;
65759;SDS011;52496;51.082;5.066;2023-07-13T07:18:04;6.78;;;3.13;;
65759;SDS011;52496;51.082;5.066;2023-07-13T07:20:35;10.32;;;4.15;;
65759;SDS011;52496;51.082;5.066;2023-07-13T07:23:05;10.93;;;3.53;;
65759;SDS011;52496;51.082;5.066;2023-07-13T07:25:36;12.85;;;3.80;;
65759;SDS011;52496;51.082;5.066;2023-07-13T07:28:12;13.13;;;3.72;;
65759;SDS011;52496;51.082;5.066;2023-07-13T07:30:45;13.45;;;4.60;;
65759;SDS011;52496;51.082;5.066;2023-07-13T07:33:15;14.50;;;3.63;;
65759;SDS011;52496;51.082;5.066;2023-07-13T07:35:47;12.20;;;4.13;;
65759;SDS011;52496;51.082;5.066;2023-07-13T07:38:18;12.38;;;3.90;;
65759;SDS011;52496;51.082;5.066;2023-07-13T07:40:49;15.30;;;3.70;;
65759;SDS011;52496;51.082;5.066;2023-07-13T07:43:19;11.43;;;3.70;;
65759;SDS011;52496;51.082;5.066;2023-07-13T07:45:50;13.38;;;3.88;;
65759;SDS011;52496;51.082;5.066;2023-07-13T07:48:20;13.35;;;3.50;;
65759;SDS011;52496;51.082;5.066;2023-07-13T07:50:51;8.70;;;3.95;;
65759;SDS011;52496;51.082;5.066;2023-07-13T07:53:21;11.50;;;3.67;;
65759;SDS011;52496;51.082;5.066;2023-07-13T07:55:52;7.47;;;3.60;;
65759;SDS011;52496;51.082;5.066;2023-07-13T07:58:23;8.38;;;3.47;;
65759;SDS011;52496;51.082;5.066;2023-07-13T08:00:53;11.30;;;3.45;;
65759;SDS011;52496;51.082;5.066;2023-07-13T08:03:24;15.05;;;4.53;;
65759;SDS011;52496;51.082;5.066;2023-07-13T08:05:54;16.45;;;3.60;;
65759;SDS011;52496;51.082;5.066;2023-07-13T08:08:24;9.60;;;3.75;;
65759;SDS011;52496;51.082;5.066;2023-07-13T08:10:55;10.95;;;3.42;;
65759;SDS011;52496;51.082;5.066;2023-07-13T08:13:25;12.80;;;4.38;;
65759;SDS011;52496;51.082;5.066;2023-07-13T08:15:56;8.48;;;3.25;;
65759;SDS011;52496;51.082;5.066;2023-07-13T08:18:26;10.50;;;3.25;;
65759;SDS011;52496;51.082;5.066;2023-07-13T08:21:07;8.45;;;3.60;;
65759;SDS011;52496;51.082;5.066;2023-07-13T08:23:38;15.55;;;3.90;;
65759;SDS011;52496;51.082;5.066;2023-07-13T08:26:09;8.88;;;3.40;;
65759;SDS011;52496;51.082;5.066;2023-07-13T08:28:40;11.07;;;3.28;;
65759;SDS011;52496;51.082;5.066;2023-07-13T08:31:11;11.18;;;3.70;;
65759;SDS011;52496;51.082;5.066;2023-07-13T08:33:41;9.00;;;3.17;;
65759;SDS011;52496;51.082;5.066;2023-07-13T08:36:12;8.68;;;2.85;;
65759;SDS011;52496;51.082;5.066;2023-07-13T08:38:42;8.90;;;3.38;;
65759;SDS011;52496;51.082;5.066;2023-07-13T08:41:16;10.93;;;3.30;;
65759;SDS011;52496;51.082;5.066;2023-07-13T08:43:49;9.57;;;3.45;;
65759;SDS011;52496;51.082;5.066;2023-07-13T08:46:38;8.88;;;3.08;;
65759;SDS011;52496;51.082;5.066;2023-07-13T08:49:16;8.73;;;3.17;;
65759;SDS011;52496;51.082;5.066;2023-07-13T08:54:36;9.48;;;3.40;;
65759;SDS011;52496;51.082;5.066;2023-07-13T08:57:13;10.85;;;3.35;;
65759;SDS011;52496;51.082;5.066;2023-07-13T08:59:46;11.85;;;3.22;;
65759;SDS011;52496;51.082;5.066;2023-07-13T09:05:01;8.52;;;2.80;;
65759;SDS011;52496;51.082;5.066;2023-07-13T09:10:44;11.57;;;3.33;;
65759;SDS011;52496;51.082;5.066;2023-07-13T09:16:09;10.02;;;3.58;;
65759;SDS011;52496;51.082;5.066;2023-07-13T09:18:42;7.28;;;3.00;;
65759;SDS011;52496;51.082;5.066;2023-07-13T09:21:24;11.73;;;3.67;;
65759;SDS011;52496;51.082;5.066;2023-07-13T09:24:14;8.52;;;3.05;;
65759;SDS011;52496;51.082;5.066;2023-07-13T09:27:15;9.63;;;3.08;;
65759;SDS011;52496;51.082;5.066;2023-07-13T09:30:15;6.53;;;2.40;;
65759;SDS011;52496;51.082;5.066;2023-07-13T09:33:08;9.98;;;2.97;;
65759;SDS011;52496;51.082;5.066;2023-07-13T09:35:39;6.05;;;2.55;;
65759;SDS011;52496;51.082;5.066;2023-07-13T09:38:13;10.55;;;3.28;;
65759;SDS011;52496;51.082;5.066;2023-07-13T09:43:29;11.55;;;3.35;;
65759;SDS011;52496;51.082;5.066;2023-07-13T09:45:59;9.00;;;3.75;;
65759;SDS011;52496;51.082;5.066;2023-07-13T09:48:34;6.28;;;2.50;;
65759;SDS011;52496;51.082;5.066;2023-07-13T09:51:07;9.57;;;2.90;;
65759;SDS011;52496;51.082;5.066;2023-07-13T09:53:44;10.73;;;3.30;;
65759;SDS011;52496;51.082;5.066;2023-07-13T09:56:18;7.72;;;2.83;;
65759;SDS011;52496;51.082;5.066;2023-07-13T09:58:53;8.55;;;2.90;;
65759;SDS011;52496;51.082;5.066;2023-07-13T10:01:37;10.77;;;3.40;;
65759;SDS011;52496;51.082;5.066;2023-07-13T10:04:12;6.13;;;2.80;;
65759;SDS011;52496;51.082;5.066;2023-07-13T10:06:43;9.52;;;2.33;;
65759;SDS011;52496;51.082;5.066;2023-07-13T10:09:15;7.00;;;2.30;;
65759;SDS011;52496;51.082;5.066;2023-07-13T10:11:47;6.43;;;2.70;;
65759;SDS011;52496;51.082;5.066;2023-07-13T10:14:21;5.40;;;2.38;;
65759;SDS011;52496;51.082;5.066;2023-07-13T10:17:00;7.55;;;2.55;;
65759;SDS011;52496;51.082;5.066;2023-07-13T10:19:34;7.20;;;2.50;;
65759;SDS011;52496;51.082;5.066;2023-07-13T10:24:54;4.35;;;2.00;;
65759;SDS011;52496;51.082;5.066;2023-07-13T10:27:29;6.97;;;2.60;;
65759;SDS011;52496;51.082;5.066;2023-07-13T10:32:43;7.57;;;2.40;;
65759;SDS011;52496;51.082;5.066;2023-07-13T10:35:15;7.97;;;2.60;;
65759;SDS011;52496;51.082;5.066;2023-07-13T10:37:52;5.18;;;2.30;;
65759;SDS011;52496;51.082;5.066;2023-07-13T10:40:29;6.13;;;2.20;;
65759;SDS011;52496;51.082;5.066;2023-07-13T10:43:21;5.93;;;2.63;;
65759;SDS011;52496;51.082;5.066;2023-07-13T10:45:56;5.22;;;2.10;;
65759;SDS011;52496;51.082;5.066;2023-07-13T10:48:29;6.95;;;2.33;;
65759;SDS011;52496;51.082;5.066;2023-07-13T10:51:03;6.88;;;2.40;;
65759;SDS011;52496;51.082;5.066;2023-07-13T10:53:37;4.85;;;2.30;;
65759;SDS011;52496;51.082;5.066;2023-07-13T10:56:19;5.00;;;2.17;;
65759;SDS011;52496;51.082;5.066;2023-07-13T11:01:41;7.30;;;2.45;;
65759;SDS011;52496;51.082;5.066;2023-07-13T11:06:48;7.93;;;2.78;;
65759;SDS011;52496;51.082;5.066;2023-07-13T11:11:59;8.25;;;2.38;;
65759;SDS011;52496;51.082;5.066;2023-07-13T11:17:32;8.00;;;2.40;;
65759;SDS011;52496;51.082;5.066;2023-07-13T11:33:28;5.90;;;2.10;;
65759;SDS011;52496;51.082;5.066;2023-07-13T11:36:18;8.52;;;2.58;;
65759;SDS011;52496;51.082;5.066;2023-07-13T11:39:53;6.50;;;2.00;;
65759;SDS011;52496;51.082;5.066;2023-07-13T11:42:02;5.18;;;1.90;;
65759;SDS011;52496;51.082;5.066;2023-07-13T11:44:41;5.30;;;2.10;;
65759;SDS011;52496;51.082;5.066;2023-07-13T11:47:20;6.32;;;2.00;;
65759;SDS011;52496;51.082;5.066;2023-07-13T11:49:53;4.90;;;2.27;;
65759;SDS011;52496;51.082;5.066;2023-07-13T11:52:32;7.50;;;2.45;;
65759;SDS011;52496;51.082;5.066;2023-07-13T11:55:13;8.60;;;2.35;;
65759;SDS011;52496;51.082;5.066;2023-07-13T11:57:56;4.68;;;1.90;;
65759;SDS011;52496;51.082;5.066;2023-07-13T12:00:29;5.40;;;2.20;;
65759;SDS011;52496;51.082;5.066;2023-07-13T12:03:03;8.70;;;2.10;;
65759;SDS011;52496;51.082;5.066;2023-07-13T12:05:35;6.20;;;2.35;;
65759;SDS011;52496;51.082;5.066;2023-07-13T12:08:10;7.22;;;2.20;;
65759;SDS011;52496;51.082;5.066;2023-07-13T12:10:44;5.88;;;2.33;;
65759;SDS011;52496;51.082;5.066;2023-07-13T12:13:17;5.65;;;2.30;;
65759;SDS011;52496;51.082;5.066;2023-07-13T12:15:48;5.60;;;2.42;;
65759;SDS011;52496;51.082;5.066;2023-07-13T12:18:19;6.90;;;2.53;;
65759;SDS011;52496;51.082;5.066;2023-07-13T12:20:57;7.07;;;2.30;;
65759;SDS011;52496;51.082;5.066;2023-07-13T12:26:05;5.90;;;2.47;;
65759;SDS011;52496;51.082;5.066;2023-07-13T12:28:38;7.70;;;2.35;;
65759;SDS011;52496;51.082;5.066;2023-07-13T12:36:48;4.68;;;2.30;;
65759;SDS011;52496;51.082;5.066;2023-07-13T12:39:26;6.60;;;2.47;;
65759;SDS011;52496;51.082;5.066;2023-07-13T12:47:57;5.95;;;2.40;;
65759;SDS011;52496;51.082;5.066;2023-07-13T12:50:40;6.30;;;2.45;;
65759;SDS011;52496;51.082;5.066;2023-07-13T12:53:14;5.97;;;2.78;;
65759;SDS011;52496;51.082;5.066;2023-07-13T12:55:55;6.78;;;2.50;;
65759;SDS011;52496;51.082;5.066;2023-07-13T12:58:40;8.38;;;3.30;;
65759;SDS011;52496;51.082;5.066;2023-07-13T13:01:13;5.85;;;3.60;;
65759;SDS011;52496;51.082;5.066;2023-07-13T13:03:48;5.57;;;3.33;;
65759;SDS011;52496;51.082;5.066;2023-07-13T13:06:28;5.88;;;2.78;;
65759;SDS011;52496;51.082;5.066;2023-07-13T13:09:00;6.55;;;3.10;;
65759;SDS011;52496;51.082;5.066;2023-07-13T13:11:31;5.38;;;2.78;;
65759;SDS011;52496;51.082;5.066;2023-07-13T13:14:02;8.23;;;3.22;;
65759;SDS011;52496;51.082;5.066;2023-07-13T13:16:43;7.03;;;2.55;;
65759;SDS011;52496;51.082;5.066;2023-07-13T13:19:20;7.53;;;2.90;;
65759;SDS011;52496;51.082;5.066;2023-07-13T13:21:55;6.38;;;3.00;;
65759;SDS011;52496;51.082;5.066;2023-07-13T13:24:27;6.22;;;2.95;;
65759;SDS011;52496;51.082;5.066;2023-07-13T13:26:58;6.40;;;3.05;;
65759;SDS011;52496;51.082;5.066;2023-07-13T13:29:31;4.47;;;2.50;;
65759;SDS011;52496;51.082;5.066;2023-07-13T13:32:03;7.93;;;3.25;;
65759;SDS011;52496;51.082;5.066;2023-07-13T13:34:35;5.55;;;2.90;;
65759;SDS011;52496;51.082;5.066;2023-07-13T13:37:20;6.68;;;2.90;;
65759;SDS011;52496;51.082;5.066;2023-07-13T13:39:52;4.50;;;2.70;;
65759;SDS011;52496;51.082;5.066;2023-07-13T13:42:23;5.40;;;3.17;;
65759;SDS011;52496;51.082;5.066;2023-07-13T13:44:54;5.90;;;3.13;;
65759;SDS011;52496;51.082;5.066;2023-07-13T13:50:01;8.90;;;3.35;;
65759;SDS011;52496;51.082;5.066;2023-07-13T13:52:41;9.32;;;4.30;;
65759;SDS011;52496;51.082;5.066;2023-07-13T13:55:15;12.07;;;5.18;;
65759;SDS011;52496;51.082;5.066;2023-07-13T13:57:50;12.45;;;4.28;;
65759;SDS011;52496;51.082;5.066;2023-07-13T14:00:21;7.80;;;3.22;;
65759;SDS011;52496;51.082;5.066;2023-07-13T14:02:51;7.10;;;3.25;;
65759;SDS011;52496;51.082;5.066;2023-07-13T14:05:23;7.70;;;3.10;;
65759;SDS011;52496;51.082;5.066;2023-07-13T14:07:58;5.40;;;2.75;;
65759;SDS011;52496;51.082;5.066;2023-07-13T14:10:30;5.28;;;2.70;;
65759;SDS011;52496;51.082;5.066;2023-07-13T14:13:00;4.38;;;2.90;;
65759;SDS011;52496;51.082;5.066;2023-07-13T14:15:31;4.55;;;3.00;;
65759;SDS011;52496;51.082;5.066;2023-07-13T14:18:02;8.05;;;3.00;;
65759;SDS011;52496;51.082;5.066;2023-07-13T14:20:32;5.80;;;2.70;;
65759;SDS011;52496;51.082;5.066;2023-07-13T14:23:03;4.65;;;2.53;;
65759;SDS011;52496;51.082;5.066;2023-07-13T14:25:34;5.75;;;2.95;;
65759;SDS011;52496;51.082;5.066;2023-07-13T14:30:53;4.85;;;2.75;;
65759;SDS011;52496;51.082;5.066;2023-07-13T14:33:27;8.25;;;2.83;;
65759;SDS011;52496;51.082;5.066;2023-07-13T14:35:57;6.65;;;2.95;;
65759;SDS011;52496;51.082;5.066;2023-07-13T14:38:28;5.78;;;2.47;;
65759;SDS011;52496;51.082;5.066;2023-07-13T14:40:58;5.57;;;2.60;;
65759;SDS011;52496;51.082;5.066;2023-07-13T14:43:29;8.38;;;2.80;;
65759;SDS011;52496;51.082;5.066;2023-07-13T14:45:59;6.55;;;2.50;;
65759;SDS011;52496;51.082;5.066;2023-07-13T14:48:30;6.30;;;2.70;;
65759;SDS011;52496;51.082;5.066;2023-07-13T14:51:01;4.75;;;2.33;;
65759;SDS011;52496;51.082;5.066;2023-07-13T14:53:31;5.90;;;2.50;;
65759;SDS011;52496;51.082;5.066;2023-07-13T14:56:02;3.53;;;2.30;;
65759;SDS011;52496;51.082;5.066;2023-07-13T14:58:32;4.82;;;2.53;;
65759;SDS011;52496;51.082;5.066;2023-07-13T15:01:03;5.20;;;2.70;;
65759;SDS011;52496;51.082;5.066;2023-07-13T15:03:34;5.78;;;2.28;;
65759;SDS011;52496;51.082;5.066;2023-07-13T15:06:04;4.72;;;2.20;;
65759;SDS011;52496;51.082;5.066;2023-07-13T15:08:35;7.00;;;2.65;;
65759;SDS011;52496;51.082;5.066;2023-07-13T15:11:06;4.97;;;2.35;;
65759;SDS011;52496;51.082;5.066;2023-07-13T15:13:40;3.97;;;2.38;;
65759;SDS011;52496;51.082;5.066;2023-07-13T15:16:18;7.93;;;2.28;;
65759;SDS011;52496;51.082;5.066;2023-07-13T15:18:53;4.28;;;2.00;;
65759;SDS011;52496;51.082;5.066;2023-07-13T15:21:24;6.35;;;2.53;;
65759;SDS011;52496;51.082;5.066;2023-07-13T15:23:58;5.45;;;2.30;;
65759;SDS011;52496;51.082;5.066;2023-07-13T15:26:28;6.50;;;2.20;;
65759;SDS011;52496;51.082;5.066;2023-07-13T15:29:00;4.85;;;2.28;;
65759;SDS011;52496;51.082;5.066;2023-07-13T15:31:32;4.00;;;2.22;;
65759;SDS011;52496;51.082;5.066;2023-07-13T15:34:07;4.07;;;2.20;;
65759;SDS011;52496;51.082;5.066;2023-07-13T15:36:42;4.80;;;2.10;;
65759;SDS011;52496;51.082;5.066;2023-07-13T15:39:14;4.50;;;2.30;;
65759;SDS011;52496;51.082;5.066;2023-07-13T15:41:48;6.40;;;2.47;;
65759;SDS011;52496;51.082;5.066;2023-07-13T15:46:53;7.03;;;2.70;;
65759;SDS011;52496;51.082;5.066;2023-07-13T15:49:24;5.82;;;2.35;;
65759;SDS011;52496;51.082;5.066;2023-07-13T15:51:54;4.82;;;2.15;;
65759;SDS011;52496;51.082;5.066;2023-07-13T15:54:26;4.55;;;2.13;;
65759;SDS011;52496;51.082;5.066;2023-07-13T15:56:56;5.32;;;2.40;;
65759;SDS011;52496;51.082;5.066;2023-07-13T15:59:31;5.97;;;2.55;;
65759;SDS011;52496;51.082;5.066;2023-07-13T16:02:08;5.35;;;2.25;;
65759;SDS011;52496;51.082;5.066;2023-07-13T16:04:46;7.20;;;2.95;;
65759;SDS011;52496;51.082;5.066;2023-07-13T16:07:17;5.28;;;2.00;;
65759;SDS011;52496;51.082;5.066;2023-07-13T16:09:49;6.10;;;1.95;;
65759;SDS011;52496;51.082;5.066;2023-07-13T16:12:20;4.93;;;2.17;;
65759;SDS011;52496;51.082;5.066;2023-07-13T16:14:52;6.38;;;2.50;;
65759;SDS011;52496;51.082;5.066;2023-07-13T16:17:23;6.20;;;2.30;;
65759;SDS011;52496;51.082;5.066;2023-07-13T16:19:53;6.93;;;2.45;;
65759;SDS011;52496;51.082;5.066;2023-07-13T16:22:26;7.18;;;2.30;;